Aérodrome :
LOGIN :

S'inscrire | Disclaimer

   EN    FR    IT 

 










Légende :    VFR   VFR Marginal   IFR   IFR Intensif   IFR Très Intensif
Visi : 
Plafond : 
>= 8 km
>= 3000ft
5 à 8 km
1000 à 3000 ft
1500m à 5 km
500 à 1000 ft
800 à 1500m
200 à 500 ft
< 800m
< 200 ft
Symboles :   Orages  Brouillard  Fortes neiges  Fortes précipitations  Vent > 20 kt
SIGMETs :   Divers  Orages  Givrage  Turbulence  Onde Orograph.  Cendres Volcan.






- Altitude de l'aérodrome : 156 ft
- Code IATA : OMO


LQMO - Mostar

DERNIER METAR :
  • 061100Z 30003KT 260V330 9999 FEW050 OVC055 09/01 Q1025

METARs EXPIRÉS :
  • 061030Z 34003KT 260V030 9999 FEW050 OVC055 08/01 Q1025
  • 061000Z VRB02KT 9999 FEW050 OVC055 08/01 Q1026
  • 060930Z VRB02KT 9999 BKN050 07/01 Q1026
  • 060900Z 15004KT 130V190 9999 SCT050 07/01 Q1026

TAF TAF LQMO
Valide du 06 à 12h jusqu'au 07 à 12h UTC


061100Z 0612/0712 15005KT 9999 BKN050 TX12/0613Z TN06/0706Z
TEMPO 0613/0706 4000 RA
PROB40
TEMPO 0622/0703 4000 SHRA FEW010 FEW035TCU BKN040



MET'MAP, la Météo Aéronautique d'un coup d'oeil ! - Copyright ORBIFLY Décembre 2007 - Disclaimer

ORBIFLY MET'MAP TEAM :

Programmation & Développement : Alexandra Zaïnal
Sur une idée originale de : Baudouin d'Aumeries
Assistance à la programmation : Marc-Olivier Méhu
Soutien technique & logistique : Manuel Goepfert

Contact : metmap@orbifly.com




SOURCES & CREDITS :

   NOAA